createdAt,value
2017-06-05T00:00:47.730Z,22.90
2017-06-05T00:03:15.217Z,22.90
2017-06-05T00:05:42.715Z,22.80
2017-06-05T00:08:10.463Z,22.90
2017-06-05T00:10:37.959Z,22.90
2017-06-05T00:13:05.498Z,22.80
2017-06-05T00:15:32.991Z,22.40
2017-06-05T00:18:00.485Z,22.40
2017-06-05T00:20:28.037Z,22.30
2017-06-05T00:22:55.592Z,22.20
2017-06-05T00:25:23.193Z,22.20
2017-06-05T00:27:50.716Z,22.30
2017-06-05T00:30:18.202Z,22.30
2017-06-05T00:32:45.688Z,21.90
2017-06-05T00:35:13.207Z,21.50
2017-06-05T00:37:40.696Z,20.90
2017-06-05T00:40:08.180Z,19.50
2017-06-05T00:42:36.117Z,19.20
2017-06-05T00:45:03.602Z,19.20
2017-06-05T00:47:31.344Z,18.80
2017-06-05T00:49:58.856Z,18.40
2017-06-05T00:52:26.345Z,18.10
2017-06-05T00:54:53.854Z,17.90
2017-06-05T00:57:21.750Z,18.00
2017-06-05T00:59:49.244Z,18.00
2017-06-05T01:02:17.224Z,18.00
2017-06-05T01:04:44.709Z,17.90
2017-06-05T01:07:12.225Z,17.90
2017-06-05T01:09:39.760Z,18.30
2017-06-05T01:12:07.621Z,18.70
2017-06-05T01:14:35.133Z,19.40
2017-06-05T01:17:03.069Z,20.30
2017-06-05T01:19:30.553Z,20.40
2017-06-05T01:21:58.450Z,21.10
2017-06-05T01:24:26.001Z,21.10
2017-06-05T01:26:53.560Z,21.50
2017-06-05T01:29:21.066Z,21.80
2017-06-05T01:31:48.600Z,22.00
2017-06-05T01:34:16.088Z,21.80
2017-06-05T01:36:43.597Z,22.00
2017-06-05T01:39:11.166Z,21.90
2017-06-05T01:41:38.645Z,22.00
2017-06-05T01:44:06.142Z,22.10
2017-06-05T01:46:33.728Z,22.20
2017-06-05T01:49:01.220Z,22.30
2017-06-05T01:51:28.748Z,22.50
2017-06-05T01:53:56.415Z,22.20
2017-06-05T01:56:23.980Z,22.40
2017-06-05T01:58:51.535Z,22.60
2017-06-05T02:01:19.055Z,22.70
2017-06-05T02:03:46.549Z,22.90
2017-06-05T02:06:14.201Z,22.90
2017-06-05T02:08:41.766Z,22.90
2017-06-05T02:11:09.454Z,22.90
2017-06-05T02:13:36.988Z,22.80
2017-06-05T02:16:04.479Z,22.70
2017-06-05T02:18:32.096Z,22.60
2017-06-05T02:20:59.637Z,22.50
2017-06-05T02:23:27.229Z,22.40
2017-06-05T02:25:54.728Z,22.40
2017-06-05T02:28:22.252Z,22.50
2017-06-05T02:30:49.747Z,22.50
2017-06-05T02:33:17.237Z,22.10
2017-06-05T02:35:45.192Z,22.30
2017-06-05T02:38:12.678Z,22.30
2017-06-05T02:40:40.483Z,22.40
2017-06-05T02:43:08.047Z,22.60
2017-06-05T02:45:35.540Z,22.70
2017-06-05T02:48:03.157Z,22.90
2017-06-05T02:50:30.782Z,22.70
2017-06-05T02:52:58.272Z,22.80
2017-06-05T02:55:25.796Z,22.70
2017-06-05T02:57:53.365Z,22.50
2017-06-05T03:00:20.845Z,22.30
2017-06-05T03:02:48.327Z,22.50
2017-06-05T03:05:15.851Z,22.20
2017-06-05T03:07:45.240Z,21.90
2017-06-05T03:10:12.747Z,22.10
2017-06-05T03:12:40.283Z,22.40
2017-06-05T03:15:07.781Z,22.20
2017-06-05T03:17:35.264Z,22.20
2017-06-05T03:20:02.814Z,21.90
2017-06-05T03:22:30.700Z,22.00
2017-06-05T03:24:58.205Z,22.00
2017-06-05T03:27:25.703Z,21.90
2017-06-05T03:29:53.196Z,21.70
2017-06-05T03:32:20.725Z,21.40
2017-06-05T03:34:48.212Z,20.70
2017-06-05T03:37:15.707Z,20.30
2017-06-05T03:39:43.354Z,19.80
2017-06-05T03:42:10.836Z,19.70
2017-06-05T03:44:38.728Z,20.30
2017-06-05T03:47:06.237Z,20.30
2017-06-05T03:49:33.723Z,20.50
2017-06-05T03:52:01.234Z,20.80
2017-06-05T03:54:29.495Z,20.70
2017-06-05T03:56:57.041Z,20.90
2017-06-05T03:59:25.345Z,21.00
2017-06-05T04:01:55.688Z,20.40
2017-06-05T04:04:23.196Z,20.70
2017-06-05T04:06:50.687Z,20.70
2017-06-05T04:09:18.219Z,20.10
2017-06-05T04:11:46.035Z,19.60
2017-06-05T04:14:14.188Z,19.50
2017-06-05T04:16:41.719Z,19.50
2017-06-05T04:19:09.507Z,19.40
2017-06-05T04:21:37.028Z,19.40
2017-06-05T04:24:04.573Z,19.30
2017-06-05T04:26:32.901Z,19.10
2017-06-05T04:29:00.445Z,19.10
2017-06-05T04:31:27.943Z,18.80
2017-06-05T04:33:55.598Z,18.70
2017-06-05T04:36:23.131Z,18.70
2017-06-05T04:38:50.624Z,18.90
2017-06-05T04:41:18.212Z,18.80
2017-06-05T04:43:46.148Z,18.90
2017-06-05T04:46:13.648Z,18.90
2017-06-05T04:48:41.153Z,18.80
2017-06-05T04:51:08.755Z,18.90
2017-06-05T04:53:36.728Z,18.90
2017-06-05T04:56:04.610Z,19.20
2017-06-05T04:58:32.397Z,19.20
2017-06-05T05:00:59.938Z,19.10
2017-06-05T05:03:27.721Z,19.00
2017-06-05T05:05:55.282Z,19.40
2017-06-05T05:08:22.812Z,19.30
2017-06-05T05:10:50.296Z,19.20
2017-06-05T05:13:17.841Z,19.40
2017-06-05T05:15:45.355Z,19.20
2017-06-05T05:18:12.849Z,19.50
2017-06-05T05:20:40.383Z,19.50
2017-06-05T05:23:08.329Z,19.80
2017-06-05T05:25:35.824Z,19.80
2017-06-05T05:28:03.621Z,19.80
2017-06-05T05:30:31.117Z,19.80
2017-06-05T05:32:59.021Z,20.20
2017-06-05T05:35:26.606Z,20.20
2017-06-05T05:37:54.162Z,20.50
2017-06-05T05:40:21.683Z,20.50
2017-06-05T05:42:49.941Z,20.20
2017-06-05T05:45:17.448Z,20.20
2017-06-05T05:47:44.944Z,20.30
2017-06-05T05:50:12.527Z,20.50
2017-06-05T05:52:40.023Z,20.50
2017-06-05T05:55:07.521Z,20.70
2017-06-05T05:57:35.058Z,20.80
2017-06-05T06:00:02.573Z,20.60
2017-06-05T06:02:30.069Z,20.50
2017-06-05T06:04:57.615Z,20.60
2017-06-05T06:07:25.342Z,20.80
2017-06-05T06:09:53.227Z,21.00
2017-06-05T06:12:20.769Z,21.00
2017-06-05T06:14:48.689Z,21.30
2017-06-05T06:17:16.182Z,21.30
2017-06-05T06:19:44.083Z,22.10
2017-06-05T06:22:11.595Z,22.10
2017-06-05T06:24:39.139Z,22.60
2017-06-05T06:27:06.631Z,22.90
2017-06-05T06:29:34.521Z,22.20
2017-06-05T06:32:02.110Z,22.20
2017-06-05T06:34:29.608Z,22.50
2017-06-05T06:36:57.126Z,22.60
2017-06-05T06:39:24.677Z,22.50
2017-06-05T06:41:52.168Z,22.50
2017-06-05T06:44:19.653Z,22.40
2017-06-05T06:46:47.545Z,22.70
2017-06-05T06:49:15.325Z,22.70
2017-06-05T06:51:42.854Z,23.20
2017-06-05T06:54:10.687Z,23.40
2017-06-05T06:56:38.177Z,23.50
2017-06-05T06:59:05.731Z,23.90
2017-06-05T07:01:33.632Z,24.70
2017-06-05T07:04:01.121Z,24.70
2017-06-05T07:06:28.767Z,24.60
2017-06-05T07:08:56.276Z,24.20
2017-06-05T07:11:23.786Z,24.30
2017-06-05T07:13:51.365Z,24.70
2017-06-05T07:16:18.855Z,24.70
2017-06-05T07:18:46.351Z,24.60
2017-06-05T07:21:13.878Z,25.00
2017-06-05T07:23:41.373Z,25.60
2017-06-05T07:26:08.935Z,26.20
2017-06-05T07:28:36.453Z,26.10
2017-06-05T07:31:03.953Z,27.20
2017-06-05T07:33:31.455Z,27.80
2017-06-05T07:35:59.709Z,28.50
2017-06-05T07:38:27.440Z,28.50
2017-06-05T07:40:54.936Z,28.90
2017-06-05T07:43:22.516Z,28.80
2017-06-05T07:45:50.015Z,28.10
2017-06-05T07:48:17.517Z,27.10
2017-06-05T07:50:45.469Z,28.20
2017-06-05T07:53:12.970Z,28.20
2017-06-05T07:55:40.488Z,28.30
2017-06-05T07:58:08.001Z,27.20
2017-06-05T08:00:35.711Z,26.50
2017-06-05T08:03:03.217Z,26.40
2017-06-05T08:05:30.753Z,26.30
2017-06-05T08:07:58.965Z,26.90
2017-06-05T08:10:26.464Z,26.90
2017-06-05T08:12:54.369Z,28.70
2017-06-05T08:15:21.869Z,28.70
2017-06-05T08:17:49.404Z,29.70
2017-06-05T08:20:16.896Z,29.90
2017-06-05T08:22:44.412Z,28.30
2017-06-05T08:25:11.940Z,26.80
2017-06-05T08:27:39.444Z,26.40
2017-06-05T08:30:06.938Z,26.50
2017-06-05T08:32:34.581Z,26.80
2017-06-05T08:35:02.115Z,27.10
2017-06-05T08:37:29.667Z,26.30
2017-06-05T08:39:57.306Z,25.90
2017-06-05T08:42:24.802Z,25.50
2017-06-05T08:44:52.298Z,25.70
2017-06-05T08:47:19.831Z,26.10
2017-06-05T08:49:47.325Z,26.90
2017-06-05T08:52:15.331Z,27.90
2017-06-05T08:54:42.876Z,27.90
2017-06-05T08:57:10.371Z,27.70
2017-06-05T08:59:38.091Z,27.10
2017-06-05T09:02:05.626Z,27.70
2017-06-05T09:04:33.645Z,30.90
2017-06-05T09:07:01.426Z,30.90
2017-06-05T09:09:29.096Z,32.00
2017-06-05T09:11:56.624Z,32.80
2017-06-05T09:14:24.209Z,32.90
2017-06-05T09:16:51.706Z,31.40
2017-06-05T09:19:19.589Z,31.40
2017-06-05T09:21:47.797Z,31.40
2017-06-05T09:24:15.339Z,32.70
2017-06-05T09:26:42.992Z,33.50
2017-06-05T09:29:10.809Z,31.80
2017-06-05T09:31:38.530Z,30.50
2017-06-05T09:34:06.069Z,31.30
2017-06-05T09:36:33.620Z,32.70
2017-06-05T09:39:01.143Z,33.90
2017-06-05T09:41:28.648Z,33.60
2017-06-05T09:43:56.184Z,32.30
2017-06-05T09:46:24.082Z,31.90
2017-06-05T09:48:51.592Z,31.90
2017-06-05T09:51:19.088Z,31.60
2017-06-05T09:53:46.574Z,31.40
2017-06-05T09:56:14.202Z,31.10
2017-06-05T09:58:41.723Z,32.80
2017-06-05T10:01:09.457Z,31.90
2017-06-05T10:03:37.038Z,30.50
2017-06-05T10:06:04.579Z,30.10
2017-06-05T10:08:32.121Z,31.00
2017-06-05T10:10:59.662Z,31.10
2017-06-05T10:13:27.150Z,31.30
2017-06-05T10:15:54.645Z,32.30
2017-06-05T10:18:22.147Z,32.20
2017-06-05T10:20:49.648Z,32.10
2017-06-05T10:23:17.161Z,32.30
2017-06-05T10:25:45.841Z,31.80
2017-06-05T10:28:13.332Z,31.90
2017-06-05T10:30:41.154Z,32.50
2017-06-05T10:33:08.957Z,31.00
2017-06-05T10:35:36.483Z,31.60
2017-06-05T10:38:04.033Z,31.70
2017-06-05T10:40:31.729Z,32.30
2017-06-05T10:42:59.257Z,32.10
2017-06-05T10:45:26.744Z,30.80
2017-06-05T10:47:54.245Z,30.60
2017-06-05T10:50:22.199Z,29.90
2017-06-05T10:52:49.687Z,29.90
2017-06-05T10:55:17.572Z,29.90
2017-06-05T10:57:45.138Z,29.90
2017-06-05T11:00:12.631Z,30.30
2017-06-05T11:02:40.129Z,30.80
2017-06-05T11:05:08.068Z,31.90
2017-06-05T11:07:35.803Z,32.00
2017-06-05T11:10:03.329Z,31.60
2017-06-05T11:12:30.878Z,31.90
2017-06-05T11:14:58.785Z,30.00
2017-06-05T11:17:26.299Z,30.00
2017-06-05T11:19:54.236Z,29.20
2017-06-05T11:22:21.869Z,29.20
2017-06-05T11:24:49.381Z,29.10
2017-06-05T11:27:17.272Z,29.40
2017-06-05T11:29:44.762Z,29.40
2017-06-05T11:32:12.284Z,29.30
2017-06-05T11:34:39.783Z,28.90
2017-06-05T11:37:07.272Z,29.20
2017-06-05T11:39:34.792Z,29.00
2017-06-05T11:42:02.282Z,28.50
2017-06-05T11:44:29.763Z,28.10
2017-06-05T11:46:57.360Z,28.10
2017-06-05T11:49:24.868Z,27.20
2017-06-05T11:51:52.702Z,27.30
2017-06-05T11:54:20.216Z,27.60
2017-06-05T11:56:47.720Z,27.80
2017-06-05T11:59:15.235Z,28.50
2017-06-05T12:01:42.750Z,29.10
2017-06-05T12:04:11.199Z,29.40
2017-06-05T12:06:39.633Z,29.30
2017-06-05T12:09:08.160Z,28.30
2017-06-05T12:11:36.341Z,28.00
2017-06-05T12:14:05.245Z,27.90
2017-06-05T12:16:33.840Z,27.40
2017-06-05T12:19:02.317Z,27.40
2017-06-05T12:21:30.795Z,27.00
2017-06-05T12:23:59.085Z,26.70
2017-06-05T12:26:27.786Z,27.40
2017-06-05T12:28:57.028Z,27.20
2017-06-05T12:31:24.790Z,27.20
2017-06-05T12:33:52.783Z,27.00
2017-06-05T12:36:22.285Z,27.00
2017-06-05T12:38:50.114Z,27.10
2017-06-05T12:41:18.480Z,27.00
2017-06-05T12:43:46.719Z,27.40
2017-06-05T12:46:16.057Z,28.10
2017-06-05T12:48:44.258Z,28.50
2017-06-05T12:51:13.102Z,29.00
2017-06-05T12:53:42.585Z,27.70
2017-06-05T12:56:11.079Z,27.70
2017-06-05T12:58:38.898Z,27.70
2017-06-05T13:01:07.039Z,27.40
2017-06-05T13:03:35.838Z,27.90
2017-06-05T13:06:05.008Z,27.10
2017-06-05T13:08:33.266Z,27.10
2017-06-05T13:11:01.554Z,27.20
2017-06-05T13:13:30.106Z,27.10
2017-06-05T13:15:58.390Z,26.90
2017-06-05T13:18:27.103Z,27.10
2017-06-05T13:20:55.350Z,27.10
2017-06-05T13:23:23.880Z,27.20
2017-06-05T13:25:53.163Z,27.20
2017-06-05T13:28:21.594Z,27.80
2017-06-05T13:30:49.507Z,27.70
2017-06-05T13:33:17.376Z,27.80
2017-06-05T13:35:45.849Z,27.60
2017-06-05T13:38:13.697Z,28.00
2017-06-05T13:40:41.238Z,28.30
2017-06-05T13:43:09.028Z,28.50
2017-06-05T13:45:37.170Z,27.90
2017-06-05T13:48:05.361Z,27.60
2017-06-05T13:50:32.915Z,27.10
2017-06-05T13:53:00.675Z,26.20
2017-06-05T13:55:28.184Z,26.30
2017-06-05T13:57:56.244Z,26.60
2017-06-05T14:00:23.776Z,26.60
2017-06-05T14:02:52.297Z,26.90
2017-06-05T14:05:20.502Z,26.60
2017-06-05T14:07:48.021Z,26.60
2017-06-05T14:10:15.568Z,26.20
2017-06-05T14:12:43.206Z,25.90
2017-06-05T14:15:10.735Z,25.60
2017-06-05T14:17:38.250Z,25.30
2017-06-05T14:20:06.005Z,25.20
2017-06-05T14:22:33.617Z,25.00
2017-06-05T14:25:01.129Z,24.90
2017-06-05T14:27:28.665Z,24.90
2017-06-05T14:29:56.184Z,24.80
2017-06-05T14:32:23.725Z,24.90
2017-06-05T14:34:51.642Z,25.00
2017-06-05T14:37:19.127Z,25.00
2017-06-05T14:39:46.750Z,25.00
2017-06-05T14:42:14.227Z,25.20
2017-06-05T14:44:41.753Z,25.60
2017-06-05T14:47:09.288Z,25.90
2017-06-05T14:49:37.184Z,25.40
2017-06-05T14:52:04.716Z,25.40
2017-06-05T14:54:32.263Z,25.50
2017-06-05T14:56:59.782Z,25.90
2017-06-05T14:59:27.280Z,26.10
2017-06-05T15:01:55.368Z,26.00
2017-06-05T15:04:23.100Z,26.00
2017-06-05T15:09:50.038Z,26.10
2017-06-05T15:12:17.653Z,26.40
2017-06-05T15:14:45.151Z,26.80
2017-06-05T15:17:12.644Z,26.80
2017-06-05T15:19:40.178Z,26.70
2017-06-05T15:22:07.668Z,26.60
2017-06-05T15:24:35.157Z,26.50
2017-06-05T15:27:02.734Z,26.30
2017-06-05T15:29:30.222Z,25.70
2017-06-05T15:31:57.765Z,25.90
2017-06-05T15:34:25.304Z,25.60
2017-06-05T15:36:52.802Z,25.50
2017-06-05T15:39:20.449Z,25.50
2017-06-05T15:41:47.956Z,25.20
2017-06-05T15:44:15.842Z,24.50
2017-06-05T15:46:43.381Z,24.50
2017-06-05T15:49:10.887Z,24.60
2017-06-05T15:51:38.376Z,24.50
2017-06-05T15:54:05.951Z,24.20
2017-06-05T15:56:33.836Z,24.00
2017-06-05T15:59:01.627Z,24.00
2017-06-05T16:01:29.148Z,23.80
2017-06-05T16:03:56.952Z,23.70
2017-06-05T16:06:24.490Z,23.60
2017-06-05T16:08:52.000Z,23.90
2017-06-05T16:11:19.491Z,24.20
2017-06-05T16:13:47.009Z,24.00
2017-06-05T16:16:14.504Z,23.90
2017-06-05T16:18:42.988Z,23.90
2017-06-05T16:21:10.538Z,24.10
2017-06-05T16:23:38.423Z,24.20
2017-06-05T16:26:05.920Z,24.20
2017-06-05T16:28:33.420Z,24.20
2017-06-05T16:31:00.907Z,24.00
2017-06-05T16:33:28.431Z,23.60
2017-06-05T16:35:56.325Z,22.60
2017-06-05T16:38:23.817Z,22.60
2017-06-05T16:40:52.051Z,22.20
2017-06-05T16:43:19.557Z,22.60
2017-06-05T16:45:47.048Z,22.80
2017-06-05T16:48:15.372Z,23.00
2017-06-05T16:50:42.864Z,23.00
2017-06-05T16:53:10.587Z,22.90
2017-06-05T16:55:38.152Z,22.90
2017-06-05T16:58:05.995Z,23.20
2017-06-05T17:00:34.173Z,23.80
2017-06-05T17:03:01.724Z,24.10
2017-06-05T17:05:29.216Z,24.30
2017-06-05T17:07:56.888Z,24.30
2017-06-05T17:10:24.438Z,24.40
2017-06-05T17:12:51.927Z,24.10
2017-06-05T17:15:19.424Z,24.00
2017-06-05T17:17:47.215Z,23.80
2017-06-05T17:20:14.735Z,23.80
2017-06-05T17:22:42.319Z,22.90
2017-06-05T17:25:09.878Z,22.20
2017-06-05T17:27:37.382Z,22.00
2017-06-05T17:30:04.925Z,21.70
2017-06-05T17:32:32.421Z,21.30
2017-06-05T17:34:59.934Z,20.70
2017-06-05T17:37:27.485Z,20.80
2017-06-05T17:39:55.025Z,20.80
2017-06-05T17:42:22.528Z,20.10
2017-06-05T17:44:50.053Z,20.40
2017-06-05T17:47:17.936Z,20.70
2017-06-05T17:49:45.521Z,20.50
2017-06-05T17:52:13.562Z,21.20
2017-06-05T17:54:41.069Z,21.20
2017-06-05T17:57:08.948Z,21.40
2017-06-05T17:59:36.468Z,21.40
2017-06-05T18:02:03.988Z,20.90
2017-06-05T18:04:31.600Z,20.40
2017-06-05T18:06:59.966Z,19.60
2017-06-05T18:09:28.232Z,19.60
2017-06-05T18:11:55.740Z,19.30
2017-06-05T18:14:23.276Z,19.30
2017-06-05T18:16:51.203Z,19.00
2017-06-05T18:19:18.748Z,19.10
2017-06-05T18:21:46.272Z,18.80
2017-06-05T18:24:13.820Z,18.70
2017-06-05T18:26:41.753Z,18.60
2017-06-05T18:29:09.386Z,18.60
2017-06-05T18:31:36.926Z,18.60
2017-06-05T18:34:04.461Z,18.50
2017-06-05T18:36:31.954Z,18.50
2017-06-05T18:42:10.917Z,18.40
2017-06-05T18:44:39.159Z,18.40
2017-06-05T18:47:07.679Z,18.40
2017-06-05T18:49:35.988Z,18.40
2017-06-05T18:52:04.258Z,18.30
2017-06-05T18:54:32.511Z,18.30
2017-06-05T18:57:01.269Z,18.30
2017-06-05T18:59:29.552Z,18.20
2017-06-05T19:01:58.053Z,18.30
2017-06-05T19:04:27.215Z,18.30
2017-06-05T19:06:55.625Z,18.30
2017-06-05T19:09:24.145Z,18.30
2017-06-05T19:11:52.772Z,18.30
2017-06-05T19:14:21.005Z,18.20
2017-06-05T19:16:49.248Z,18.30
2017-06-05T19:19:17.644Z,18.40
2017-06-05T19:21:46.314Z,18.30
2017-06-05T19:24:14.675Z,18.30
2017-06-05T19:26:43.156Z,18.30
2017-06-05T19:29:12.139Z,18.40
2017-06-05T19:31:40.373Z,18.30
2017-06-05T19:34:08.667Z,18.30
2017-06-05T19:36:37.280Z,18.20
2017-06-05T19:39:05.551Z,18.40
2017-06-05T19:41:33.809Z,18.20
2017-06-05T19:44:02.063Z,18.10
2017-06-05T19:46:30.355Z,18.20
2017-06-05T19:48:59.343Z,18.10
2017-06-05T19:51:27.658Z,18.00
2017-06-05T19:53:55.962Z,18.00
2017-06-05T19:56:24.315Z,17.90
2017-06-05T19:58:52.836Z,17.90
2017-06-05T20:01:21.197Z,17.90
2017-06-05T20:03:49.412Z,17.90
2017-06-05T20:06:17.708Z,17.80
2017-06-05T20:08:45.972Z,17.80
2017-06-05T20:11:14.217Z,17.90
2017-06-05T20:13:42.611Z,18.00
2017-06-05T20:16:11.003Z,17.90
2017-06-05T20:18:39.252Z,18.10
2017-06-05T20:21:07.526Z,17.90
2017-06-05T20:23:36.211Z,17.70
2017-06-05T20:26:04.507Z,17.70
2017-06-05T20:28:32.733Z,17.70
2017-06-05T20:31:01.116Z,17.90
2017-06-05T20:33:29.765Z,17.70
2017-06-05T20:35:58.114Z,17.80
2017-06-05T20:38:26.980Z,17.70
2017-06-05T20:40:55.239Z,17.70
2017-06-05T20:43:23.504Z,17.50
2017-06-05T20:45:51.782Z,17.50
2017-06-05T20:48:20.795Z,17.50
2017-06-05T20:50:49.440Z,17.70
2017-06-05T20:53:17.711Z,17.70
2017-06-05T20:55:45.982Z,17.80
2017-06-05T20:58:14.264Z,17.70
2017-06-05T21:00:42.540Z,17.70
2017-06-05T21:03:10.814Z,17.70
2017-06-05T21:05:39.172Z,17.70
2017-06-05T21:08:07.442Z,17.60
2017-06-05T21:10:35.986Z,17.60
2017-06-05T21:13:04.278Z,17.60
2017-06-05T21:15:32.633Z,17.70
2017-06-05T21:18:00.926Z,17.70
2017-06-05T21:20:29.254Z,18.00
2017-06-05T21:22:57.538Z,17.90
2017-06-05T21:25:25.900Z,17.70
2017-06-05T21:27:54.137Z,17.70
2017-06-05T21:30:22.375Z,17.70
2017-06-05T21:32:50.636Z,17.60
2017-06-05T21:35:18.880Z,17.70
2017-06-05T21:37:47.155Z,17.70
2017-06-05T21:40:15.431Z,17.80
2017-06-05T21:42:44.060Z,18.00
2017-06-05T21:45:12.348Z,18.00
2017-06-05T21:47:40.577Z,17.90
2017-06-05T21:50:08.811Z,17.80
2017-06-05T21:52:37.126Z,18.10
2017-06-05T21:55:05.364Z,18.00
2017-06-05T21:57:33.673Z,17.90
2017-06-05T22:00:01.887Z,17.90
2017-06-05T22:02:31.050Z,17.70
2017-06-05T22:04:59.523Z,17.70
2017-06-05T22:07:28.141Z,17.80
2017-06-05T22:09:56.376Z,17.80
2017-06-05T22:12:25.020Z,17.60
2017-06-05T22:14:53.299Z,17.60
2017-06-05T22:17:21.583Z,17.70
2017-06-05T22:19:49.841Z,17.80
2017-06-05T22:22:18.101Z,17.80
2017-06-05T22:24:46.491Z,17.70
2017-06-05T22:27:14.742Z,17.60
2017-06-05T22:29:42.979Z,17.60
2017-06-05T22:32:11.653Z,17.70
2017-06-05T22:34:39.899Z,17.70
2017-06-05T22:37:08.168Z,17.70
2017-06-05T22:39:36.480Z,17.70
2017-06-05T22:42:04.724Z,17.70
2017-06-05T22:44:33.241Z,17.80
2017-06-05T22:47:01.491Z,17.70
2017-06-05T22:49:29.740Z,17.60
2017-06-05T22:51:58.268Z,17.60
2017-06-05T22:54:26.519Z,17.50
2017-06-05T22:56:54.776Z,17.60
2017-06-05T22:59:23.085Z,17.70
2017-06-05T23:01:51.320Z,17.70
2017-06-05T23:04:19.572Z,17.70
2017-06-05T23:06:48.284Z,17.60
2017-06-05T23:09:16.544Z,17.60
2017-06-05T23:11:44.798Z,17.50
2017-06-05T23:14:13.080Z,17.60
2017-06-05T23:16:41.732Z,17.40
2017-06-05T23:19:09.976Z,17.40
2017-06-05T23:21:38.275Z,17.30
2017-06-05T23:24:06.525Z,17.30
2017-06-05T23:26:34.796Z,17.20
2017-06-05T23:29:03.048Z,17.20
2017-06-05T23:31:31.680Z,17.40
2017-06-05T23:33:59.982Z,17.40
2017-06-05T23:36:28.354Z,17.60
2017-06-05T23:38:56.589Z,17.50
2017-06-05T23:41:24.859Z,17.50
2017-06-05T23:43:53.178Z,17.60
2017-06-05T23:46:21.422Z,17.50
2017-06-05T23:48:49.708Z,17.60
2017-06-05T23:51:17.951Z,17.50
2017-06-05T23:53:46.197Z,17.50
2017-06-05T23:56:14.502Z,17.40
2017-06-05T23:58:42.744Z,17.50
